createdAt,value
2018-11-28T00:00:15.169Z,20.8
2018-11-28T00:01:05.789Z,20.8
2018-11-28T00:01:56.698Z,20.8
2018-11-28T00:02:46.425Z,20.8
2018-11-28T00:03:36.536Z,20.8
2018-11-28T00:04:26.323Z,20.8
2018-11-28T00:05:16.075Z,20.8
2018-11-28T00:06:06.141Z,20.8
2018-11-28T00:06:55.635Z,20.8
2018-11-28T00:25:08.719Z,20.8
2018-11-28T00:26:04.774Z,20.8
2018-11-28T00:26:48.534Z,20.8
2018-11-28T00:27:38.576Z,20.8
2018-11-28T00:28:28.090Z,20.8
2018-11-28T00:29:19.275Z,20.8
2018-11-28T00:30:09.007Z,20.8
2018-11-28T00:30:59.078Z,20.8
2018-11-28T00:31:48.872Z,20.8
2018-11-28T00:32:38.962Z,20.8
2018-11-28T00:33:28.711Z,20.8
2018-11-28T00:34:19.084Z,20.8
2018-11-28T00:35:09.898Z,20.8
2018-11-28T00:35:59.721Z,20.8
2018-11-28T00:36:49.235Z,20.8
2018-11-28T00:37:39.583Z,20.8
2018-11-28T00:38:29.063Z,20.8
2018-11-28T00:39:19.680Z,20.8
2018-11-28T00:40:08.908Z,20.8
2018-11-28T00:41:00.172Z,20.8
2018-11-28T00:41:49.865Z,20.8
2018-11-28T00:42:39.928Z,20.8
2018-11-28T00:43:30.227Z,20.8
2018-11-28T00:44:19.213Z,20.8
2018-11-28T00:45:09.532Z,20.8
2018-11-28T00:46:00.201Z,20.8
2018-11-28T00:46:49.107Z,20.8
2018-11-28T00:47:39.730Z,20.8
2018-11-28T00:48:29.784Z,20.8
2018-11-28T00:49:19.534Z,20.8
2018-11-28T00:50:09.349Z,20.8
2018-11-28T00:51:00.617Z,20.8
2018-11-28T00:51:50.042Z,20.8
2018-11-28T00:52:40.343Z,20.8
2018-11-28T00:53:30.970Z,20.8
2018-11-28T00:54:20.462Z,20.8
2018-11-28T00:55:10.546Z,20.8
2018-11-28T00:56:01.131Z,20.8
2018-11-28T00:56:51.187Z,20.8
2018-11-28T00:57:40.136Z,20.8
2018-11-28T00:58:30.769Z,20.8
2018-11-28T00:59:20.284Z,20.8
2018-11-28T01:00:10.688Z,20.8
2018-11-28T01:01:00.915Z,20.8
2018-11-28T01:01:50.996Z,20.8
2018-11-28T01:02:41.649Z,20.8
2018-11-28T01:03:31.669Z,20.8
2018-11-28T01:04:21.746Z,20.8
2018-11-28T01:05:10.954Z,20.8
2018-11-28T01:06:01.028Z,20.8
2018-11-28T01:06:51.059Z,20.8
2018-11-28T01:07:41.714Z,20.8
2018-11-28T01:08:31.478Z,20.8
2018-11-28T01:09:21.815Z,20.8
2018-11-28T01:10:12.473Z,20.8
2018-11-28T01:11:01.908Z,20.8
2018-11-28T01:11:52.226Z,20.8
2018-11-28T01:12:40.981Z,20.8
2018-11-28T01:13:31.849Z,20.8
2018-11-28T01:14:22.700Z,20.8
2018-11-28T01:15:11.983Z,20.8
2018-11-28T01:16:02.334Z,20.8
2018-11-28T01:16:51.585Z,20.8
2018-11-28T01:17:41.420Z,20.8
2018-11-28T01:18:32.008Z,20.8
2018-11-28T01:19:21.795Z,20.8
2018-11-28T01:20:11.275Z,20.8
2018-11-28T01:21:01.885Z,20.8
2018-11-28T01:21:52.495Z,20.8
2018-11-28T01:22:42.509Z,20.8
2018-11-28T01:23:33.138Z,20.8
2018-11-28T01:24:22.070Z,20.8
2018-11-28T01:25:12.941Z,20.8
2018-11-28T01:26:04.029Z,20.8
2018-11-28T01:26:52.912Z,20.8
2018-11-28T01:27:42.360Z,20.8
2018-11-28T01:28:32.897Z,20.8
2018-11-28T01:29:23.494Z,20.8
2018-11-28T01:30:13.032Z,20.8
2018-11-28T01:31:02.309Z,20.8
2018-11-28T01:31:53.492Z,20.8
2018-11-28T01:32:44.031Z,20.8
2018-11-28T01:33:33.562Z,20.8
2018-11-28T01:34:23.629Z,20.8
2018-11-28T01:35:13.374Z,20.8
2018-11-28T01:36:03.759Z,20.8
2018-11-28T01:36:53.262Z,20.8
2018-11-28T01:37:43.809Z,20.8
2018-11-28T01:38:33.919Z,20.8
2018-11-28T01:39:24.220Z,20.8
2018-11-28T01:40:13.451Z,20.8
2018-11-28T01:41:03.803Z,20.8
2018-11-28T01:41:54.121Z,20.8
2018-11-28T01:42:42.883Z,20.8
2018-11-28T01:43:33.751Z,20.8
2018-11-28T01:44:23.757Z,20.8
2018-11-28T01:45:13.539Z,20.8
2018-11-28T01:46:03.596Z,20.8
2018-11-28T01:46:53.646Z,20.8
2018-11-28T01:47:44.806Z,20.8
2018-11-28T01:48:34.077Z,20.8
2018-11-28T01:49:23.821Z,20.8
2018-11-28T01:50:14.448Z,20.8
2018-11-28T01:51:03.664Z,20.8
2018-11-28T01:51:54.274Z,20.8
2018-11-28T01:52:43.533Z,20.8
2018-11-28T01:53:34.181Z,20.8
2018-11-28T01:54:24.465Z,20.8
2018-11-28T01:55:14.523Z,20.8
2018-11-28T01:56:04.308Z,20.8
2018-11-28T01:56:54.950Z,20.8
2018-11-28T01:57:45.655Z,20.8
2018-11-28T01:58:35.033Z,20.8
2018-11-28T01:59:25.668Z,20.8
2018-11-28T02:00:15.480Z,20.8
2018-11-28T02:01:05.771Z,20.8
2018-11-28T02:01:55.655Z,20.8
2018-11-28T02:02:45.406Z,20.8
2018-11-28T02:03:34.824Z,20.8
2018-11-28T02:04:25.185Z,20.8
2018-11-28T02:05:16.053Z,20.8
2018-11-28T02:06:05.577Z,20.8
2018-11-28T02:06:55.640Z,20.8
2018-11-28T02:07:46.011Z,20.8
2018-11-28T02:08:36.022Z,20.8
2018-11-28T02:09:25.777Z,20.8
2018-11-28T02:10:15.609Z,20.8
2018-11-28T02:11:05.104Z,20.8
2018-11-28T02:11:56.257Z,20.8
2018-11-28T02:12:46.570Z,20.8
2018-11-28T02:13:36.624Z,20.8
2018-11-28T02:14:25.944Z,20.8
2018-11-28T02:15:16.489Z,20.8
2018-11-28T02:16:06.269Z,20.8
2018-11-28T02:16:56.351Z,20.8
2018-11-28T02:17:46.511Z,20.8
2018-11-28T02:18:36.244Z,20.8
2018-11-28T02:19:26.779Z,20.8
2018-11-28T02:20:15.868Z,20.8
2018-11-28T02:21:07.224Z,20.8
2018-11-28T02:21:56.136Z,20.8
2018-11-28T02:22:46.481Z,20.8
2018-11-28T02:23:36.233Z,20.8
2018-11-28T02:24:26.600Z,20.8
2018-11-28T02:25:16.221Z,20.8
2018-11-28T02:26:06.751Z,20.8
2018-11-28T02:26:57.051Z,20.8
2018-11-28T02:27:47.145Z,20.8
2018-11-28T02:28:36.638Z,20.8
2018-11-28T02:29:28.134Z,20.8
2018-11-28T02:30:17.764Z,20.8
2018-11-28T02:31:06.849Z,20.8
2018-11-28T02:31:58.005Z,20.8
2018-11-28T02:32:47.553Z,20.8
2018-11-28T02:33:37.816Z,20.8
2018-11-28T02:34:27.383Z,20.8
2018-11-28T02:35:17.960Z,20.8
2018-11-28T02:36:08.041Z,20.8
2018-11-28T02:36:57.788Z,20.8
2018-11-28T02:37:48.520Z,20.8
2018-11-28T02:38:37.606Z,20.8
2018-11-28T02:39:28.188Z,20.8
2018-11-28T02:40:18.340Z,20.8
2018-11-28T02:41:08.378Z,20.8
2018-11-28T02:41:57.860Z,20.8
2018-11-28T02:42:47.948Z,20.8
2018-11-28T02:43:38.847Z,20.8
2018-11-28T02:44:28.051Z,20.8
2018-11-28T02:45:19.022Z,20.8
2018-11-28T02:46:07.888Z,20.8
2018-11-28T02:46:57.967Z,20.7
2018-11-28T02:47:48.627Z,20.8
2018-11-28T02:48:38.640Z,20.8
2018-11-28T02:49:28.617Z,20.8
2018-11-28T02:50:18.787Z,20.7
2018-11-28T02:51:09.042Z,20.7
2018-11-28T02:51:58.864Z,20.7
2018-11-28T02:52:48.917Z,20.7
2018-11-28T02:53:39.274Z,20.7
2018-11-28T02:54:29.837Z,20.7
2018-11-28T02:55:19.757Z,20.7
2018-11-28T02:56:09.187Z,20.7
2018-11-28T02:56:59.254Z,20.7
2018-11-28T02:57:49.040Z,20.8
2018-11-28T02:58:39.584Z,20.7
2018-11-28T02:59:28.843Z,20.8
2018-11-28T03:00:20.059Z,20.7
2018-11-28T03:01:09.767Z,20.7
2018-11-28T03:01:59.271Z,20.7
2018-11-28T03:02:49.680Z,20.7
2018-11-28T03:03:39.688Z,20.7
2018-11-28T03:04:30.069Z,20.7
2018-11-28T03:05:20.181Z,20.7
2018-11-28T03:06:10.375Z,20.7
2018-11-28T03:07:00.231Z,20.7
2018-11-28T03:07:50.556Z,20.7
2018-11-28T03:08:40.072Z,20.7
2018-11-28T03:09:30.325Z,20.7
2018-11-28T03:10:19.901Z,20.7
2018-11-28T03:11:10.004Z,20.7
2018-11-28T03:11:59.980Z,20.7
2018-11-28T03:12:50.164Z,20.7
2018-11-28T03:13:40.374Z,20.7
2018-11-28T03:14:31.029Z,20.7
2018-11-28T03:15:20.481Z,20.7
2018-11-28T03:16:10.848Z,20.7
2018-11-28T03:17:00.611Z,20.7
2018-11-28T03:17:51.065Z,20.7
2018-11-28T03:18:40.805Z,20.7
2018-11-28T03:19:31.090Z,20.7
2018-11-28T03:20:21.487Z,20.7
2018-11-28T03:21:10.664Z,20.7
2018-11-28T03:22:00.432Z,20.7
2018-11-28T03:22:51.099Z,20.7
2018-11-28T03:23:40.799Z,20.7
2018-11-28T03:24:31.755Z,20.7
2018-11-28T03:25:21.327Z,20.7
2018-11-28T03:26:11.241Z,20.7
2018-11-28T03:27:01.362Z,20.7
2018-11-28T03:27:51.668Z,20.6
2018-11-28T03:28:41.466Z,20.7
2018-11-28T03:29:32.084Z,20.7
2018-11-28T03:30:22.348Z,20.6
2018-11-28T03:31:11.765Z,20.7
2018-11-28T03:32:01.846Z,20.6
2018-11-28T03:32:52.125Z,20.6
2018-11-28T03:33:42.101Z,20.7
2018-11-28T03:34:32.267Z,20.6
2018-11-28T03:35:23.544Z,20.6
2018-11-28T03:36:11.744Z,20.7
2018-11-28T03:37:02.048Z,20.6
2018-11-28T03:37:52.177Z,20.7
2018-11-28T03:38:41.886Z,20.7
2018-11-28T03:39:32.771Z,20.7
2018-11-28T03:40:22.292Z,20.6
2018-11-28T03:41:11.804Z,20.6
2018-11-28T03:42:02.172Z,20.7
2018-11-28T03:42:52.478Z,20.7
2018-11-28T03:43:42.209Z,20.6
2018-11-28T03:44:32.573Z,20.7
2018-11-28T03:45:22.976Z,20.6
2018-11-28T03:46:12.670Z,20.7
2018-11-28T03:47:03.036Z,20.6
2018-11-28T03:47:53.364Z,20.6
2018-11-28T03:48:42.854Z,20.6
2018-11-28T03:49:32.926Z,20.6
2018-11-28T03:50:23.231Z,20.6
2018-11-28T03:51:13.616Z,20.7
2018-11-28T03:52:02.566Z,20.6
2018-11-28T03:52:53.168Z,20.6
2018-11-28T03:53:42.111Z,20.6
2018-11-28T03:54:33.564Z,20.6
2018-11-28T03:55:23.917Z,20.6
2018-11-28T03:56:13.401Z,20.6
2018-11-28T03:57:03.048Z,20.6
2018-11-28T03:57:53.576Z,20.6
2018-11-28T03:58:43.861Z,20.6
2018-11-28T03:59:33.099Z,20.6
2018-11-28T04:00:24.305Z,20.6
2018-11-28T04:01:13.803Z,20.6
2018-11-28T04:02:03.851Z,20.6
2018-11-28T04:02:53.613Z,20.6
2018-11-28T04:03:43.978Z,20.6
2018-11-28T04:04:33.173Z,20.6
2018-11-28T04:05:24.728Z,20.6
2018-11-28T04:06:14.427Z,20.6
2018-11-28T04:07:04.471Z,20.6
2018-11-28T04:07:54.543Z,20.6
2018-11-28T04:08:44.255Z,20.6
2018-11-28T04:09:34.338Z,20.6
2018-11-28T04:10:24.982Z,20.6
2018-11-28T04:11:14.533Z,20.6
2018-11-28T04:12:05.075Z,20.6
2018-11-28T04:12:55.461Z,20.6
2018-11-28T04:13:45.198Z,20.6
2018-11-28T04:14:34.994Z,20.6
2018-11-28T04:15:25.094Z,20.6
2018-11-28T04:16:14.284Z,20.6
2018-11-28T04:17:04.590Z,20.6
2018-11-28T04:17:54.978Z,20.6
2018-11-28T04:18:45.506Z,20.6
2018-11-28T04:19:35.622Z,20.6
2018-11-28T04:20:24.944Z,20.6
2018-11-28T04:21:14.652Z,20.6
2018-11-28T04:22:05.001Z,20.6
2018-11-28T04:22:55.361Z,20.6
2018-11-28T04:23:45.159Z,20.6
2018-11-28T04:24:35.736Z,20.6
2018-11-28T04:25:26.798Z,20.6
2018-11-28T04:26:15.559Z,20.6
2018-11-28T04:27:05.644Z,20.6
2018-11-28T04:27:55.371Z,20.6
2018-11-28T04:28:45.137Z,20.6
2018-11-28T04:29:36.341Z,20.6
2018-11-28T04:30:26.268Z,20.6
2018-11-28T04:31:16.471Z,20.6
2018-11-28T04:32:06.319Z,20.6
2018-11-28T04:32:55.789Z,20.6
2018-11-28T04:33:46.396Z,20.6
2018-11-28T04:34:36.411Z,20.6
2018-11-28T04:35:26.645Z,20.6
2018-11-28T04:36:16.248Z,20.6
2018-11-28T04:54:24.142Z,20.6
2018-11-28T04:55:14.805Z,20.6
2018-11-28T04:56:04.640Z,20.6
2018-11-28T04:56:55.141Z,20.6
2018-11-28T04:57:44.734Z,20.6
2018-11-28T04:58:33.897Z,20.6
2018-11-28T04:59:24.819Z,20.6
2018-11-28T05:00:14.402Z,20.6
2018-11-28T05:01:04.649Z,20.6
2018-11-28T05:01:55.297Z,20.6
2018-11-28T05:02:45.086Z,20.6
2018-11-28T05:03:35.139Z,20.6
2018-11-28T05:04:24.364Z,20.6
2018-11-28T05:05:15.741Z,20.6
2018-11-28T05:06:04.446Z,20.6
2018-11-28T05:06:55.391Z,20.6
2018-11-28T05:07:45.413Z,20.6
2018-11-28T05:08:35.173Z,20.6
2018-11-28T05:09:25.323Z,20.6
2018-11-28T05:10:15.793Z,20.6
2018-11-28T05:11:05.608Z,20.6
2018-11-28T05:11:55.753Z,20.6
2018-11-28T05:12:46.056Z,20.6
2018-11-28T05:13:35.278Z,20.6
2018-11-28T05:14:25.941Z,20.6
2018-11-28T05:15:15.613Z,20.6
2018-11-28T05:16:05.685Z,20.6
2018-11-28T05:16:55.443Z,20.6
2018-11-28T05:17:46.355Z,20.6
2018-11-28T05:18:35.575Z,20.6
2018-11-28T05:19:25.625Z,20.6
2018-11-28T05:20:15.999Z,20.6
2018-11-28T05:21:06.270Z,20.6
2018-11-28T05:21:56.385Z,20.6
2018-11-28T05:22:46.447Z,20.6
2018-11-28T05:23:35.645Z,20.6
2018-11-28T05:24:26.239Z,20.6
2018-11-28T05:25:16.052Z,20.6
2018-11-28T05:26:06.372Z,20.6
2018-11-28T05:26:55.867Z,20.6
2018-11-28T05:27:47.134Z,20.6
2018-11-28T05:28:36.825Z,20.6
2018-11-28T05:29:26.617Z,20.6
2018-11-28T05:30:16.685Z,20.6
2018-11-28T05:31:06.687Z,20.6
2018-11-28T05:31:56.847Z,20.6
2018-11-28T05:32:46.317Z,20.6
2018-11-28T05:33:36.949Z,20.6
2018-11-28T05:34:26.694Z,20.6
2018-11-28T05:35:16.459Z,20.6
2018-11-28T05:36:06.252Z,20.6
2018-11-28T05:36:56.867Z,20.6
2018-11-28T05:37:47.499Z,20.6
2018-11-28T05:38:37.262Z,20.6
2018-11-28T05:39:27.332Z,20.6
2018-11-28T05:40:17.716Z,20.6
2018-11-28T05:41:07.735Z,20.6
2018-11-28T05:41:58.086Z,20.6
2018-11-28T05:42:47.836Z,20.6
2018-11-28T05:43:37.624Z,20.6
2018-11-28T05:44:27.699Z,20.6
2018-11-28T05:45:17.699Z,20.6
2018-11-28T05:46:07.868Z,20.6
2018-11-28T05:46:58.649Z,20.6
2018-11-28T05:47:48.253Z,20.6
2018-11-28T05:48:37.688Z,20.6
2018-11-28T05:49:27.199Z,20.6
2018-11-28T05:50:18.423Z,20.6
2018-11-28T05:51:08.508Z,20.6
2018-11-28T05:51:57.950Z,20.6
2018-11-28T05:52:48.568Z,20.6
2018-11-28T05:53:37.836Z,20.6
2018-11-28T05:54:28.711Z,20.6
2018-11-28T05:55:18.509Z,20.6
2018-11-28T05:56:07.955Z,20.6
2018-11-28T05:56:58.007Z,20.6
2018-11-28T05:57:50.173Z,20.6
2018-11-28T05:58:38.115Z,20.6
2018-11-28T05:59:33.178Z,20.6
2018-11-28T06:00:18.253Z,20.6
2018-11-28T06:01:08.282Z,20.6
2018-11-28T06:01:58.897Z,20.6
2018-11-28T06:02:48.955Z,20.6
2018-11-28T06:03:39.019Z,20.6
2018-11-28T06:04:29.078Z,20.6
2018-11-28T06:05:19.147Z,20.6
2018-11-28T06:06:09.472Z,20.6
2018-11-28T06:06:59.229Z,20.6
2018-11-28T06:07:48.485Z,20.6
2018-11-28T06:08:39.087Z,20.6
2018-11-28T06:09:28.602Z,20.6
2018-11-28T06:10:19.727Z,20.6
2018-11-28T06:11:09.835Z,20.6
2018-11-28T06:12:00.467Z,20.6
2018-11-28T06:12:49.555Z,20.6
2018-11-28T06:13:40.282Z,20.6
2018-11-28T06:14:30.347Z,20.6
2018-11-28T06:15:19.849Z,20.6
2018-11-28T06:16:09.894Z,20.6
2018-11-28T06:17:00.229Z,20.6
2018-11-28T06:17:50.126Z,20.6
2018-11-28T06:18:42.029Z,20.6
2018-11-28T06:19:30.421Z,20.6
2018-11-28T06:20:19.731Z,20.6
2018-11-28T06:21:10.534Z,20.6
2018-11-28T06:22:00.855Z,20.6
2018-11-28T06:22:50.721Z,20.7
2018-11-28T06:23:41.011Z,20.7
2018-11-28T06:24:29.653Z,20.7
2018-11-28T06:25:22.607Z,20.7
2018-11-28T06:26:10.928Z,20.7
2018-11-28T06:27:00.738Z,20.7
2018-11-28T06:27:50.504Z,20.7
2018-11-28T06:28:41.633Z,20.7
2018-11-28T06:29:30.841Z,20.7
2018-11-28T06:30:20.643Z,20.7
2018-11-28T06:31:10.436Z,20.7
2018-11-28T06:32:01.048Z,20.7
2018-11-28T06:32:57.525Z,20.7
2018-11-28T06:33:42.235Z,20.7
2018-11-28T06:34:31.203Z,20.7
2018-11-28T06:35:21.531Z,20.7
2018-11-28T06:36:10.505Z,20.7
2018-11-28T06:37:01.360Z,20.7
2018-11-28T06:37:51.947Z,20.7
2018-11-28T06:38:41.180Z,20.7
2018-11-28T06:39:32.098Z,20.7
2018-11-28T06:40:28.295Z,20.7
2018-11-28T06:41:11.165Z,20.7
2018-11-28T06:42:01.778Z,20.7
2018-11-28T06:42:52.399Z,20.7
2018-11-28T06:43:42.380Z,20.7
2018-11-28T06:44:31.910Z,20.7
2018-11-28T06:45:21.983Z,20.7
2018-11-28T06:46:11.187Z,20.7
2018-11-28T06:47:02.625Z,20.7
2018-11-28T06:47:52.684Z,20.8
2018-11-28T06:48:42.750Z,20.7
2018-11-28T06:49:31.731Z,20.7
2018-11-28T06:50:22.767Z,20.7
2018-11-28T06:51:12.891Z,20.8
2018-11-28T06:52:02.685Z,20.7
2018-11-28T06:52:51.986Z,20.7
2018-11-28T06:53:42.789Z,20.7
2018-11-28T06:54:32.054Z,20.7
2018-11-28T06:55:22.717Z,20.8
2018-11-28T06:56:12.716Z,20.7
2018-11-28T06:57:03.036Z,20.7
2018-11-28T06:57:52.864Z,20.7
2018-11-28T06:58:43.447Z,20.7
2018-11-28T06:59:33.211Z,20.7
2018-11-28T07:00:23.346Z,20.7
2018-11-28T07:01:13.621Z,20.8
2018-11-28T07:02:03.393Z,20.8
2018-11-28T07:02:53.029Z,20.8
2018-11-28T07:03:43.238Z,20.7
2018-11-28T07:04:33.560Z,20.8
2018-11-28T07:05:22.860Z,20.8
2018-11-28T07:06:13.693Z,20.8
2018-11-28T07:07:03.503Z,20.8
2018-11-28T07:07:53.564Z,20.8
2018-11-28T07:08:44.500Z,20.8
2018-11-28T07:09:33.930Z,20.8
2018-11-28T07:10:22.958Z,20.8
2018-11-28T07:11:14.323Z,20.8
2018-11-28T07:12:03.272Z,20.8
2018-11-28T07:12:54.491Z,20.8
2018-11-28T07:13:43.933Z,20.8
2018-11-28T07:14:34.025Z,20.8
2018-11-28T07:15:23.803Z,20.8
2018-11-28T07:16:13.834Z,20.8
2018-11-28T07:17:03.982Z,20.8
2018-11-28T07:17:54.314Z,20.8
2018-11-28T07:18:44.537Z,20.8
2018-11-28T07:19:33.762Z,20.8
2018-11-28T07:20:24.245Z,20.8
2018-11-28T07:21:14.257Z,20.8
2018-11-28T07:22:05.253Z,20.8
2018-11-28T07:22:53.904Z,20.8
2018-11-28T07:23:43.967Z,20.8
2018-11-28T07:24:35.047Z,20.8
2018-11-28T07:25:24.872Z,20.8
2018-11-28T07:26:14.385Z,20.8
2018-11-28T07:27:04.109Z,20.8
2018-11-28T07:27:54.471Z,20.8
2018-11-28T07:28:44.271Z,20.8
2018-11-28T07:29:34.571Z,20.8
2018-11-28T07:30:25.014Z,20.8
2018-11-28T07:31:14.998Z,20.8
2018-11-28T07:32:04.201Z,20.8
2018-11-28T07:32:55.099Z,20.8
2018-11-28T07:33:44.296Z,20.8
2018-11-28T07:34:35.396Z,20.8
2018-11-28T07:35:25.764Z,20.8
2018-11-28T07:36:14.985Z,20.8
2018-11-28T07:37:05.578Z,20.9
2018-11-28T07:37:55.936Z,20.8
2018-11-28T07:38:45.708Z,20.8
2018-11-28T07:39:35.488Z,20.8
2018-11-28T07:40:26.532Z,20.8
2018-11-28T07:41:15.297Z,20.9
2018-11-28T07:42:05.398Z,20.8
2018-11-28T07:42:55.980Z,20.9
2018-11-28T07:43:46.598Z,20.9
2018-11-28T07:44:36.368Z,20.9
2018-11-28T07:45:26.538Z,20.9
2018-11-28T07:46:16.275Z,20.9
2018-11-28T07:47:06.309Z,20.9
2018-11-28T07:47:55.850Z,20.9
2018-11-28T07:48:46.398Z,20.9
2018-11-28T07:49:36.770Z,20.9
2018-11-28T07:50:26.903Z,20.8
2018-11-28T07:51:16.635Z,20.9
2018-11-28T07:52:06.920Z,20.9
2018-11-28T07:52:55.955Z,20.9
2018-11-28T07:53:46.280Z,20.9
2018-11-28T07:54:36.617Z,20.9
2018-11-28T07:55:26.676Z,20.9
2018-11-28T07:56:16.985Z,20.9
2018-11-28T07:57:06.249Z,20.9
2018-11-28T07:57:57.317Z,20.9
2018-11-28T07:58:47.110Z,20.9
2018-11-28T07:59:36.872Z,20.9
2018-11-28T08:00:27.316Z,20.9
2018-11-28T08:01:17.618Z,20.9
2018-11-28T08:02:07.382Z,20.9
2018-11-28T08:02:57.964Z,20.9
2018-11-28T08:03:47.459Z,20.9
2018-11-28T08:04:38.232Z,20.9
2018-11-28T08:05:28.479Z,20.9
2018-11-28T08:06:17.882Z,20.9
2018-11-28T08:07:07.959Z,20.9
2018-11-28T08:07:57.276Z,20.9
2018-11-28T08:08:47.024Z,20.9
2018-11-28T08:09:38.147Z,20.9
2018-11-28T08:10:28.415Z,20.9
2018-11-28T08:11:18.806Z,20.9
2018-11-28T08:12:09.616Z,20.9
2018-11-28T08:12:57.822Z,20.9
2018-11-28T08:13:48.184Z,20.9
2018-11-28T08:14:38.841Z,20.9
2018-11-28T08:15:28.198Z,20.9
2018-11-28T08:16:18.579Z,20.9
2018-11-28T08:17:08.171Z,20.9
2018-11-28T08:17:58.521Z,20.9
2018-11-28T08:18:47.984Z,20.9
2018-11-28T08:19:38.344Z,20.9
2018-11-28T08:20:28.949Z,20.9
2018-11-28T08:21:18.388Z,20.9
2018-11-28T08:22:08.768Z,20.9
2018-11-28T08:22:59.116Z,20.9
2018-11-28T08:23:48.336Z,20.9
2018-11-28T08:24:39.627Z,20.9
2018-11-28T08:25:34.706Z,20.9
2018-11-28T08:26:19.038Z,20.9
2018-11-28T08:27:09.426Z,20.9
2018-11-28T08:27:59.494Z,20.9
2018-11-28T08:28:49.223Z,20.9
2018-11-28T08:29:38.726Z,20.9
2018-11-28T08:30:28.930Z,20.9
2018-11-28T08:31:19.742Z,20.9
2018-11-28T08:32:09.978Z,20.9
2018-11-28T08:32:59.311Z,20.9
2018-11-28T08:33:49.121Z,20.9
2018-11-28T08:34:38.903Z,20.9
2018-11-28T08:35:29.292Z,20.9
2018-11-28T08:36:19.311Z,20.9
2018-11-28T08:37:09.042Z,20.9
2018-11-28T08:37:59.128Z,20.9
2018-11-28T08:38:50.015Z,20.9
2018-11-28T08:39:38.937Z,20.9
2018-11-28T08:40:30.387Z,20.9
2018-11-28T08:41:19.142Z,20.9
2018-11-28T08:42:09.854Z,20.9
2018-11-28T08:43:00.042Z,20.9
2018-11-28T08:43:50.322Z,20.8
2018-11-28T08:44:40.333Z,20.8
2018-11-28T08:45:30.187Z,20.8
2018-11-28T08:46:21.062Z,20.8
2018-11-28T08:47:10.540Z,20.8
2018-11-28T08:48:00.867Z,20.8
2018-11-28T08:48:50.329Z,20.8
2018-11-28T08:49:40.688Z,20.8
2018-11-28T08:50:32.099Z,20.8
2018-11-28T08:51:20.264Z,20.8
2018-11-28T08:52:11.677Z,20.8
2018-11-28T09:08:49.351Z,20.8
2018-11-28T09:09:39.309Z,20.8
2018-11-28T09:10:29.688Z,20.8
2018-11-28T09:11:20.224Z,20.8
2018-11-28T09:12:08.928Z,20.8
2018-11-28T09:13:05.846Z,20.8
2018-11-28T09:13:49.004Z,20.8
2018-11-28T09:14:39.895Z,20.8
2018-11-28T09:15:31.239Z,20.8
2018-11-28T09:16:19.707Z,20.8
2018-11-28T09:17:15.027Z,20.8
2018-11-28T09:17:59.396Z,20.8
2018-11-28T09:18:50.226Z,20.8
2018-11-28T09:19:39.950Z,20.8
2018-11-28T09:20:29.455Z,20.8
2018-11-28T09:21:20.193Z,20.8
2018-11-28T09:22:10.406Z,20.8
2018-11-28T09:22:59.920Z,20.8
2018-11-28T09:23:50.279Z,20.8
2018-11-28T09:24:40.308Z,20.8
2018-11-28T09:25:30.120Z,20.8
2018-11-28T09:26:20.536Z,20.8
2018-11-28T09:27:09.677Z,20.8
2018-11-28T09:28:00.347Z,20.8
2018-11-28T09:28:50.584Z,20.8
2018-11-28T09:29:40.665Z,20.8
2018-11-28T09:30:30.237Z,20.8
2018-11-28T09:31:21.059Z,20.8
2018-11-28T09:32:10.880Z,20.8
2018-11-28T09:33:01.489Z,20.8
2018-11-28T09:33:50.663Z,20.7
2018-11-28T09:34:41.789Z,20.8
2018-11-28T09:35:31.345Z,20.7
2018-11-28T09:36:21.127Z,20.8
2018-11-28T09:37:11.416Z,20.8
2018-11-28T09:38:01.279Z,20.7
2018-11-28T09:38:51.564Z,20.7
2018-11-28T09:39:42.209Z,20.8
2018-11-28T09:40:31.194Z,20.7
2018-11-28T09:41:21.741Z,20.7
2018-11-28T09:42:12.118Z,20.7
2018-11-28T09:43:01.631Z,20.7
2018-11-28T09:43:51.950Z,20.7
2018-11-28T09:44:41.476Z,20.7
2018-11-28T09:45:32.077Z,20.7
2018-11-28T09:46:21.821Z,20.7
2018-11-28T09:47:11.871Z,20.7
2018-11-28T09:48:01.983Z,20.7
2018-11-28T09:48:52.001Z,20.7
2018-11-28T09:49:42.075Z,20.7
2018-11-28T09:50:32.704Z,20.7
2018-11-28T09:51:22.481Z,20.7
2018-11-28T09:52:12.503Z,20.7
2018-11-28T09:53:01.733Z,20.7
2018-11-28T09:53:52.680Z,20.7
2018-11-28T09:54:42.995Z,20.7
2018-11-28T09:55:32.509Z,20.7
2018-11-28T09:56:22.778Z,20.6
2018-11-28T09:57:12.038Z,20.7
2018-11-28T09:58:02.763Z,20.6
2018-11-28T09:58:52.706Z,20.7
2018-11-28T09:59:42.823Z,20.6
2018-11-28T10:00:32.741Z,20.6
2018-11-28T10:01:22.602Z,20.6
2018-11-28T10:02:13.615Z,20.6
2018-11-28T10:03:03.080Z,20.6
2018-11-28T10:03:53.321Z,20.6
2018-11-28T10:04:42.858Z,20.6
2018-11-28T10:05:34.122Z,20.6
2018-11-28T10:06:23.248Z,20.6
2018-11-28T10:07:13.813Z,20.6
2018-11-28T10:08:04.304Z,20.6
2018-11-28T10:08:53.827Z,20.6
2018-11-28T10:09:43.725Z,20.6
2018-11-28T10:10:34.182Z,20.6
2018-11-28T10:11:23.322Z,20.6
2018-11-28T10:12:13.143Z,20.6
2018-11-28T10:13:03.756Z,20.6
2018-11-28T10:13:53.212Z,20.6
2018-11-28T10:14:43.535Z,20.6
2018-11-28T10:15:40.225Z,20.6
2018-11-28T10:16:23.933Z,20.6
2018-11-28T10:17:13.454Z,20.6
2018-11-28T10:18:04.388Z,20.6
2018-11-28T10:18:53.925Z,20.6
2018-11-28T10:19:44.463Z,20.6
2018-11-28T10:20:34.229Z,20.6
2018-11-28T10:21:24.622Z,20.6
2018-11-28T10:22:14.624Z,20.6
2018-11-28T10:23:03.874Z,20.6
2018-11-28T10:23:54.530Z,20.6
2018-11-28T10:24:44.551Z,20.6
2018-11-28T10:25:34.579Z,20.6
2018-11-28T10:26:24.699Z,20.6
2018-11-28T10:27:15.252Z,20.6
2018-11-28T10:28:04.512Z,20.6
2018-11-28T10:28:54.552Z,20.5
2018-11-28T10:29:44.592Z,20.5
2018-11-28T10:30:35.821Z,20.5
2018-11-28T10:31:24.792Z,20.5
2018-11-28T10:32:15.147Z,20.5
2018-11-28T10:33:05.704Z,20.5
2018-11-28T10:33:55.690Z,20.5
2018-11-28T10:34:45.782Z,20.5
2018-11-28T10:35:35.024Z,20.5
2018-11-28T10:36:25.971Z,20.5
2018-11-28T10:37:15.129Z,20.5
2018-11-28T10:38:05.761Z,20.5
2018-11-28T10:38:55.719Z,20.4
2018-11-28T10:39:45.592Z,20.5
2018-11-28T10:40:36.311Z,20.4
2018-11-28T10:41:25.484Z,20.4
2018-11-28T10:42:16.033Z,20.4
2018-11-28T10:43:06.156Z,20.4
2018-11-28T10:43:56.404Z,20.4
2018-11-28T10:44:46.014Z,20.4
2018-11-28T10:45:35.999Z,20.4
2018-11-28T10:46:27.546Z,20.4
2018-11-28T10:47:16.663Z,20.4
2018-11-28T10:48:06.834Z,20.4
2018-11-28T10:48:56.801Z,20.4
2018-11-28T10:49:46.291Z,20.4
2018-11-28T10:50:36.888Z,20.4
2018-11-28T10:51:26.771Z,20.4
2018-11-28T10:52:16.751Z,20.4
2018-11-28T10:53:06.040Z,20.4
2018-11-28T10:53:58.215Z,20.4
2018-11-28T10:54:46.921Z,20.4
2018-11-28T10:55:36.699Z,20.4
2018-11-28T10:56:26.740Z,20.4
2018-11-28T10:57:16.859Z,20.4
2018-11-28T10:58:06.874Z,20.4
2018-11-28T10:58:56.920Z,20.4
2018-11-28T10:59:48.179Z,20.4
2018-11-28T11:00:37.401Z,20.4
2018-11-28T11:01:28.316Z,20.4
2018-11-28T11:02:17.710Z,20.4
2018-11-28T11:03:06.972Z,20.4
2018-11-28T11:03:58.084Z,20.4
2018-11-28T11:04:49.194Z,20.4
2018-11-28T11:05:37.470Z,20.4
2018-11-28T11:06:27.832Z,20.4
2018-11-28T11:07:18.133Z,20.3
2018-11-28T11:08:07.569Z,20.4
2018-11-28T11:08:58.008Z,20.4
2018-11-28T11:09:48.414Z,20.4
2018-11-28T11:10:37.476Z,20.4
2018-11-28T11:11:27.817Z,20.4
2018-11-28T11:12:18.421Z,20.3
2018-11-28T11:13:07.104Z,20.3
2018-11-28T11:13:57.734Z,20.3
2018-11-28T11:14:48.319Z,20.3
2018-11-28T11:15:38.426Z,20.3
2018-11-28T11:16:28.472Z,20.3
2018-11-28T11:17:17.969Z,20.3
2018-11-28T11:18:14.586Z,20.3
2018-11-28T11:18:58.333Z,20.3
2018-11-28T11:19:48.962Z,20.3
2018-11-28T11:20:38.951Z,20.3
2018-11-28T11:21:28.500Z,20.3
2018-11-28T11:22:19.429Z,20.3
2018-11-28T11:23:10.508Z,20.3
2018-11-28T11:23:58.771Z,20.3
2018-11-28T11:24:49.419Z,20.3
2018-11-28T11:25:38.800Z,20.3
2018-11-28T11:26:28.398Z,20.3
2018-11-28T11:27:19.184Z,20.3
2018-11-28T11:28:08.775Z,20.3
2018-11-28T11:28:59.162Z,20.3
2018-11-28T11:29:48.953Z,20.3
2018-11-28T11:30:38.900Z,20.3
2018-11-28T11:31:29.026Z,20.3
2018-11-28T11:32:18.800Z,20.3
2018-11-28T11:33:08.287Z,20.3
2018-11-28T11:33:59.827Z,20.3
2018-11-28T11:34:49.042Z,20.3
2018-11-28T11:35:39.318Z,20.3
2018-11-28T11:36:28.315Z,20.3
2018-11-28T11:37:19.140Z,20.3
2018-11-28T11:38:08.399Z,20.3
2018-11-28T11:38:59.262Z,20.3
2018-11-28T11:39:49.478Z,20.3
2018-11-28T11:40:39.652Z,20.3
2018-11-28T11:41:29.555Z,20.3
2018-11-28T11:42:19.483Z,20.2
2018-11-28T11:43:09.310Z,20.2
2018-11-28T11:43:59.332Z,20.2
2018-11-28T11:44:50.690Z,20.2
2018-11-28T11:45:41.425Z,20.2
2018-11-28T11:46:29.829Z,20.2
2018-11-28T11:47:20.605Z,20.2
2018-11-28T11:48:09.962Z,20.2
2018-11-28T11:49:02.271Z,20.2
2018-11-28T11:49:50.819Z,20.2
2018-11-28T11:50:40.580Z,20.2
2018-11-28T11:51:31.227Z,20.2
2018-11-28T11:52:21.951Z,20.2
2018-11-28T11:53:11.292Z,20.1
2018-11-28T11:54:00.804Z,20.1
2018-11-28T11:54:50.050Z,20.1
2018-11-28T11:55:41.516Z,20.1
2018-11-28T11:56:31.328Z,20.1